Time;durP1;ratioP1;P1;durP2;ratioP2;P2;SDS_P1;SDS_P2;PMS_P1;PMS_P2;Temp;Humidity;BMP_temperature;BMP_pressure;BME280_temperature;BME280_humidity;BME280_pressure;Samples;Min_cycle;Max_cycle;Signal;HPM_P1;HPM_P2
2022/06/23 00:01:39;;;;;;;;;;;18.60;99.90;;;;;;5081469;28;19912;-62
2022/06/23 00:04:09;;;;;;;;;;;18.60;99.90;;;;;;5086720;28;19916;-62
2022/06/23 00:06:44;;;;;;;;;;;18.50;99.90;;;;;;5086569;28;20434;-60
2022/06/23 00:09:27;;;;;;;;;;;18.40;99.90;;;;;;5087917;28;19916;-62
2022/06/23 00:11:53;;;;;;;;;;;18.30;99.90;;;;;;5080318;28;19916;-61
2022/06/23 00:14:19;;;;;;;;;;;18.30;99.90;;;;;;5087822;28;19954;-61
2022/06/23 00:16:44;;;;;;;;;;;18.10;99.90;;;;;;5089421;28;19959;-61
2022/06/23 00:19:14;;;;;;;;;;;18.10;99.90;;;;;;5086181;28;19959;-61
2022/06/23 00:21:42;;;;;;;;;;;18.10;99.90;;;;;;5087723;28;19967;-61
2022/06/23 00:24:14;;;;;;;;;;;18.00;99.90;;;;;;5082263;28;20354;-62
2022/06/23 00:26:39;;;;;;;;;;;17.90;99.90;;;;;;5089716;28;19995;-62
2022/06/23 00:29:16;;;;;;;;;;;17.80;99.90;;;;;;5088212;28;19994;-63
2022/06/23 00:31:46;;;;;;;;;;;17.80;99.90;;;;;;5085818;28;19919;-61
2022/06/23 00:34:22;;;;;;;;;;;17.70;99.90;;;;;;5067536;28;20007;-61
2022/06/23 00:36:49;;;;;;;;;;;17.60;99.90;;;;;;5089195;28;20385;-62
2022/06/23 00:39:33;;;;;;;;;;;17.50;99.90;;;;;;5083525;28;20262;-62
2022/06/23 00:42:00;;;;;;;;;;;17.50;99.90;;;;;;5086730;28;19912;-62
2022/06/23 00:44:35;;;;;;;;;;;17.40;99.90;;;;;;5088652;28;20365;-62
2022/06/23 00:47:03;;;;;;;;;;;17.40;99.90;;;;;;5088352;28;19999;-62
2022/06/23 00:49:34;;;;;;;;;;;17.30;99.90;;;;;;5085000;28;19991;-62
2022/06/23 00:52:09;;;;;;;;;;;17.30;99.90;;;;;;5085191;28;19916;-61
2022/06/23 00:54:37;;;;;;;;;;;17.10;99.90;;;;;;5087899;28;19919;-62
2022/06/23 00:57:05;;;;;;;;;;;16.90;99.90;;;;;;5085127;28;19912;-61
2022/06/23 00:59:34;;;;;;;;;;;16.90;99.90;;;;;;5083416;28;19929;-61
2022/06/23 01:02:17;;;;;;;;;;;16.80;99.90;;;;;;5086895;28;20261;-61
2022/06/23 01:04:48;;;;;;;;;;;16.70;99.90;;;;;;5086427;28;19920;-61
2022/06/23 01:07:26;;;;;;;;;;;16.60;99.90;;;;;;5091658;28;20588;-61
2022/06/23 01:09:55;;;;;;;;;;;16.60;99.90;;;;;;5092580;28;19922;-62
2022/06/23 01:12:20;;;;;;;;;;;16.50;99.90;;;;;;5089634;28;19919;-62
2022/06/23 01:14:49;;;;;;;;;;;16.50;99.90;;;;;;5092230;28;19912;-61
2022/06/23 01:17:47;;;;;;;;;;;16.40;99.90;;;;;;5091524;28;19923;-61
2022/06/23 01:20:20;;;;;;;;;;;16.40;99.90;;;;;;5057132;28;19916;-62
2022/06/23 01:22:48;;;;;;;;;;;16.30;99.90;;;;;;5091350;28;19943;-62
2022/06/23 01:25:17;;;;;;;;;;;16.10;99.90;;;;;;5090447;28;19936;-61
2022/06/23 01:27:42;;;;;;;;;;;16.00;99.90;;;;;;5089372;28;19913;-61
2022/06/23 01:30:09;;;;;;;;;;;16.00;99.90;;;;;;5091345;28;19927;-61
2022/06/23 01:32:41;;;;;;;;;;;15.90;99.90;;;;;;5088851;28;19950;-62
2022/06/23 01:35:39;;;;;;;;;;;15.90;99.90;;;;;;5089836;28;19912;-62
2022/06/23 01:38:15;;;;;;;;;;;15.80;99.90;;;;;;5037217;28;19920;-62
2022/06/23 01:40:47;;;;;;;;;;;15.80;99.90;;;;;;5089536;28;20338;-62
2022/06/23 01:43:25;;;;;;;;;;;15.70;99.90;;;;;;5089309;28;19912;-61
2022/06/23 01:45:59;;;;;;;;;;;15.70;99.90;;;;;;5090087;28;20554;-62
2022/06/23 01:51:27;;;;;;;;;;;15.50;99.90;;;;;;5091150;28;19927;-62
2022/06/23 01:53:54;;;;;;;;;;;15.50;99.90;;;;;;5085347;28;19924;-62
2022/06/23 01:56:26;;;;;;;;;;;15.50;99.90;;;;;;5070405;28;19927;-63
2022/06/23 01:59:12;;;;;;;;;;;15.40;99.90;;;;;;5088318;28;20380;-62
2022/06/23 02:01:43;;;;;;;;;;;15.20;99.90;;;;;;5088865;28;21198;-62
2022/06/23 02:04:24;;;;;;;;;;;15.10;99.90;;;;;;5091523;28;19912;-62
2022/06/23 02:06:55;;;;;;;;;;;15.10;99.90;;;;;;5089699;28;19912;-61
2022/06/23 02:09:24;;;;;;;;;;;15.10;99.90;;;;;;5085178;28;19916;-61
2022/06/23 02:11:51;;;;;;;;;;;15.00;99.90;;;;;;5067960;28;19918;-61
2022/06/23 02:14:28;;;;;;;;;;;15.00;99.90;;;;;;5090392;28;19912;-62
2022/06/23 02:17:01;;;;;;;;;;;15.00;99.90;;;;;;5089095;28;20113;-62
2022/06/23 02:19:45;;;;;;;;;;;15.00;99.90;;;;;;5089708;28;19916;-62
2022/06/23 02:22:17;;;;;;;;;;;15.00;99.90;;;;;;5088338;28;20445;-62
2022/06/23 02:24:54;;;;;;;;;;;15.10;99.90;;;;;;5089118;28;20007;-62
2022/06/23 02:27:23;;;;;;;;;;;15.10;99.90;;;;;;5085650;28;19913;-61
2022/06/23 02:30:07;;;;;;;;;;;15.10;99.90;;;;;;5093512;28;19919;-61
2022/06/23 02:32:47;;;;;;;;;;;15.10;99.90;;;;;;5090285;28;19920;-61
2022/06/23 02:35:13;;;;;;;;;;;15.20;99.90;;;;;;5088871;28;19927;-61
2022/06/23 02:37:54;;;;;;;;;;;15.20;99.90;;;;;;5090697;28;19916;-62
2022/06/23 02:40:22;;;;;;;;;;;15.20;99.90;;;;;;5088683;28;19917;-62
2022/06/23 02:42:58;;;;;;;;;;;15.20;99.90;;;;;;5083659;28;19919;-61
2022/06/23 02:45:56;;;;;;;;;;;15.20;99.90;;;;;;5090936;28;19912;-61
2022/06/23 02:48:21;;;;;;;;;;;15.30;99.90;;;;;;5055367;28;19923;-61
2022/06/23 02:50:58;;;;;;;;;;;15.20;99.90;;;;;;5084079;28;19916;-62
2022/06/23 02:53:33;;;;;;;;;;;15.00;99.90;;;;;;5087841;28;19920;-62
2022/06/23 02:56:16;;;;;;;;;;;14.90;99.90;;;;;;5086274;28;20354;-61
2022/06/23 02:58:45;;;;;;;;;;;14.80;99.90;;;;;;5083742;28;20043;-61
2022/06/23 03:01:14;;;;;;;;;;;14.70;99.90;;;;;;5088993;28;19969;-62
2022/06/23 03:03:42;;;;;;;;;;;14.80;99.90;;;;;;5089609;28;19922;-62
2022/06/23 03:06:08;;;;;;;;;;;14.70;99.90;;;;;;5087666;28;19912;-62
2022/06/23 03:08:48;;;;;;;;;;;14.80;99.90;;;;;;5090412;28;20645;-61
2022/06/23 03:11:14;;;;;;;;;;;14.80;99.90;;;;;;5089473;28;19920;-61
2022/06/23 03:13:39;;;;;;;;;;;14.70;99.90;;;;;;5082910;28;19913;-62
2022/06/23 03:16:08;;;;;;;;;;;14.70;99.90;;;;;;5089863;28;19912;-61
2022/06/23 03:18:41;;;;;;;;;;;14.70;99.90;;;;;;5087584;28;19989;-62
2022/06/23 03:21:12;;;;;;;;;;;14.70;99.90;;;;;;5090507;28;20174;-61
2022/06/23 03:23:40;;;;;;;;;;;14.60;99.90;;;;;;5086432;28;20419;-61
2022/06/23 03:26:09;;;;;;;;;;;14.60;99.90;;;;;;5086686;28;19912;-61
2022/06/23 03:28:53;;;;;;;;;;;14.50;99.90;;;;;;5085565;28;19919;-61
2022/06/23 03:31:29;;;;;;;;;;;14.50;99.90;;;;;;5086425;28;19920;-61
2022/06/23 03:34:00;;;;;;;;;;;14.50;99.90;;;;;;5085184;28;19920;-62
2022/06/23 03:36:29;;;;;;;;;;;14.30;99.90;;;;;;5089768;28;19912;-62
2022/06/23 03:41:48;;;;;;;;;;;14.20;99.90;;;;;;5080851;28;19985;-61
2022/06/23 03:44:20;;;;;;;;;;;14.20;99.90;;;;;;5087316;28;19948;-62
2022/06/23 03:46:51;;;;;;;;;;;14.10;99.90;;;;;;5085007;28;19912;-62
2022/06/23 03:49:35;;;;;;;;;;;14.10;99.90;;;;;;5085750;28;20331;-62
2022/06/23 03:52:03;;;;;;;;;;;14.10;99.90;;;;;;5068972;28;19934;-62
2022/06/23 03:54:38;;;;;;;;;;;13.90;99.90;;;;;;5085454;28;19912;-62
2022/06/23 03:57:07;;;;;;;;;;;13.90;99.90;;;;;;5068890;28;19923;-62
2022/06/23 03:59:47;;;;;;;;;;;13.90;99.90;;;;;;5066933;28;19959;-61
2022/06/23 04:02:14;;;;;;;;;;;13.90;99.90;;;;;;5085984;28;20366;-60
2022/06/23 04:04:59;;;;;;;;;;;13.80;99.90;;;;;;5081636;28;20388;-62
2022/06/23 04:07:32;;;;;;;;;;;13.80;99.90;;;;;;5087267;28;19908;-62
2022/06/23 04:10:12;;;;;;;;;;;13.70;99.90;;;;;;5086102;28;19919;-62
2022/06/23 04:12:42;;;;;;;;;;;13.70;99.90;;;;;;5085872;28;19919;-61
2022/06/23 04:15:13;;;;;;;;;;;13.70;99.90;;;;;;5088271;28;19912;-63
2022/06/23 04:17:41;;;;;;;;;;;13.70;99.90;;;;;;5088400;28;20608;-61
2022/06/23 04:20:14;;;;;;;;;;;13.70;99.90;;;;;;5086384;28;19931;-61
2022/06/23 04:22:47;;;;;;;;;;;13.70;99.90;;;;;;5080943;28;19962;-61
2022/06/23 04:25:16;;;;;;;;;;;13.80;99.90;;;;;;5085332;28;19972;-61
2022/06/23 04:27:48;;;;;;;;;;;13.90;99.90;;;;;;5088211;28;19955;-62
2022/06/23 04:30:29;;;;;;;;;;;13.90;99.90;;;;;;5087914;28;19916;-62
2022/06/23 04:32:56;;;;;;;;;;;13.90;99.90;;;;;;5084989;28;20782;-62
2022/06/23 04:35:32;;;;;;;;;;;13.90;99.90;;;;;;5066693;28;20349;-62
2022/06/23 04:37:57;;;;;;;;;;;13.90;99.90;;;;;;5083220;28;20365;-61
2022/06/23 04:40:26;;;;;;;;;;;13.90;99.90;;;;;;5085512;28;19923;-61
2022/06/23 04:42:57;;;;;;;;;;;14.00;99.90;;;;;;5088699;28;20128;-62
2022/06/23 04:45:28;;;;;;;;;;;13.90;99.90;;;;;;5068317;28;19947;-62
2022/06/23 04:47:55;;;;;;;;;;;14.00;99.90;;;;;;5088949;28;20001;-62
2022/06/23 04:50:38;;;;;;;;;;;14.10;99.90;;;;;;5084828;28;20343;-61
2022/06/23 04:53:05;;;;;;;;;;;14.20;99.90;;;;;;5088269;28;19951;-61
2022/06/23 04:55:32;;;;;;;;;;;14.30;99.90;;;;;;5068864;28;19927;-61
2022/06/23 04:57:57;;;;;;;;;;;14.20;99.90;;;;;;5083947;28;19927;-61
2022/06/23 05:00:23;;;;;;;;;;;14.40;99.90;;;;;;5070886;28;19916;-62
2022/06/23 05:02:50;;;;;;;;;;;14.50;99.90;;;;;;5085776;28;20357;-60
2022/06/23 05:05:18;;;;;;;;;;;14.60;99.90;;;;;;5086862;28;19919;-60
2022/06/23 05:08:05;;;;;;;;;;;14.70;99.90;;;;;;5084432;28;19919;-62
2022/06/23 05:10:37;;;;;;;;;;;14.80;99.90;;;;;;5082584;28;19912;-62
2022/06/23 05:13:07;;;;;;;;;;;14.80;99.90;;;;;;5087239;28;20270;-61
2022/06/23 05:15:41;;;;;;;;;;;15.00;99.90;;;;;;5087792;28;19927;-62
2022/06/23 05:18:10;;;;;;;;;;;15.10;99.90;;;;;;5077843;28;19920;-61
2022/06/23 05:20:46;;;;;;;;;;;15.10;99.90;;;;;;5084370;28;19924;-61
2022/06/23 05:23:14;;;;;;;;;;;15.10;99.90;;;;;;5086286;28;19916;-62
2022/06/23 05:25:43;;;;;;;;;;;15.00;99.90;;;;;;5080934;28;19912;-62
2022/06/23 05:28:14;;;;;;;;;;;15.10;99.90;;;;;;5087575;28;19912;-62
2022/06/23 05:30:41;;;;;;;;;;;15.10;99.90;;;;;;5088757;28;19923;-62
2022/06/23 05:33:12;;;;;;;;;;;15.10;99.90;;;;;;5085531;28;19912;-62
2022/06/23 05:35:52;;;;;;;;;;;15.10;99.90;;;;;;5087744;28;19919;-62
2022/06/23 05:38:22;;;;;;;;;;;15.10;99.90;;;;;;5069921;28;20004;-61
2022/06/23 05:40:51;;;;;;;;;;;15.20;99.90;;;;;;5085549;28;19978;-62
2022/06/23 05:43:17;;;;;;;;;;;15.10;99.90;;;;;;5085757;28;19916;-62
2022/06/23 05:45:45;;;;;;;;;;;15.20;99.90;;;;;;5080275;28;20553;-60
2022/06/23 05:48:13;;;;;;;;;;;15.20;99.90;;;;;;5070813;28;19919;-62
2022/06/23 05:51:11;;;;;;;;;;;15.30;99.90;;;;;;5089570;28;20005;-62
2022/06/23 05:53:40;;;;;;;;;;;15.40;99.90;;;;;;5029126;28;19931;-61
2022/06/23 05:56:11;;;;;;;;;;;15.60;99.90;;;;;;5086250;28;19923;-61
2022/06/23 05:58:43;;;;;;;;;;;15.80;99.90;;;;;;5067339;28;19959;-61
2022/06/23 06:01:14;;;;;;;;;;;15.80;99.90;;;;;;5088687;28;19924;-62
2022/06/23 06:03:59;;;;;;;;;;;15.80;99.90;;;;;;5089419;28;19919;-62
2022/06/23 06:06:24;;;;;;;;;;;15.80;99.90;;;;;;5069512;28;19919;-63
2022/06/23 06:11:41;;;;;;;;;;;16.00;99.90;;;;;;5084927;28;19923;-62
2022/06/23 06:14:06;;;;;;;;;;;16.00;99.90;;;;;;5086827;28;20007;-62
2022/06/23 06:16:32;;;;;;;;;;;16.10;99.90;;;;;;5084738;28;19995;-62
2022/06/23 06:18:58;;;;;;;;;;;16.10;99.90;;;;;;5088198;28;20449;-62
2022/06/23 06:21:25;;;;;;;;;;;16.20;99.90;;;;;;5088028;28;19913;-62
2022/06/23 06:23:53;;;;;;;;;;;16.30;99.90;;;;;;5090122;28;19925;-61
2022/06/23 06:26:21;;;;;;;;;;;16.50;99.90;;;;;;5083313;28;19912;-61
2022/06/23 06:28:48;;;;;;;;;;;16.60;99.90;;;;;;5071776;28;19919;-62
2022/06/23 06:31:23;;;;;;;;;;;16.70;99.90;;;;;;5066972;28;19916;-61
2022/06/23 06:34:18;;;;;;;;;;;16.80;99.90;;;;;;5064998;28;20342;-61
2022/06/23 06:36:45;;;;;;;;;;;17.00;99.90;;;;;;5073603;28;19919;-62
2022/06/23 06:39:25;;;;;;;;;;;17.20;99.90;;;;;;5089705;28;19947;-62
2022/06/23 06:42:09;;;;;;;;;;;17.30;99.90;;;;;;5087626;28;19916;-62
2022/06/23 06:44:36;;;;;;;;;;;17.30;99.90;;;;;;5088862;28;19912;-61
2022/06/23 06:47:02;;;;;;;;;;;17.40;99.90;;;;;;5090955;28;19999;-62
2022/06/23 06:49:29;;;;;;;;;;;17.50;99.90;;;;;;5089303;28;19912;-63
2022/06/23 06:51:55;;;;;;;;;;;17.60;99.90;;;;;;5089665;28;19920;-62
2022/06/23 06:54:24;;;;;;;;;;;17.70;99.90;;;;;;5087022;28;19967;-62
2022/06/23 06:56:53;;;;;;;;;;;17.70;99.90;;;;;;5091862;28;19916;-62
2022/06/23 06:59:54;;;;;;;;;;;17.80;99.90;;;;;;5070425;28;19920;-61
2022/06/23 07:02:29;;;;;;;;;;;17.90;99.90;;;;;;5002769;28;19945;-62
2022/06/23 07:05:04;;;;;;;;;;;17.90;99.90;;;;;;5081447;28;19923;-62
2022/06/23 07:07:33;;;;;;;;;;;18.10;99.90;;;;;;5088775;28;19923;-62
2022/06/23 07:10:03;;;;;;;;;;;18.40;99.90;;;;;;5092089;28;19912;-63
2022/06/23 07:12:32;;;;;;;;;;;18.60;99.90;;;;;;5092117;28;20398;-63
2022/06/23 07:15:04;;;;;;;;;;;18.80;99.90;;;;;;5095976;28;20006;-63
2022/06/23 07:17:34;;;;;;;;;;;19.00;99.90;;;;;;5087206;28;20378;-63
2022/06/23 07:20:06;;;;;;;;;;;19.20;99.90;;;;;;5069291;28;19917;-63
2022/06/23 07:22:36;;;;;;;;;;;19.20;99.90;;;;;;5072640;28;19916;-63
2022/06/23 07:25:23;;;;;;;;;;;19.40;99.90;;;;;;5076261;28;19943;-63
2022/06/23 07:27:51;;;;;;;;;;;19.50;99.90;;;;;;5077599;28;19921;-62
2022/06/23 07:30:22;;;;;;;;;;;19.70;99.90;;;;;;5073485;28;19920;-62
2022/06/23 07:32:51;;;;;;;;;;;19.90;99.90;;;;;;5068110;28;20007;-62
2022/06/23 07:35:26;;;;;;;;;;;20.00;99.90;;;;;;5076041;28;19919;-62
2022/06/23 07:37:51;;;;;;;;;;;20.00;99.90;;;;;;5072894;28;19942;-62
2022/06/23 07:40:18;;;;;;;;;;;20.10;99.90;;;;;;5070875;28;19916;-62
2022/06/23 07:43:00;;;;;;;;;;;20.30;99.90;;;;;;5074256;28;20265;-62
2022/06/23 07:45:32;;;;;;;;;;;20.40;99.90;;;;;;5062180;28;19963;-62
2022/06/23 07:48:00;;;;;;;;;;;20.40;99.90;;;;;;5072788;28;19913;-63
2022/06/23 07:50:27;;;;;;;;;;;20.50;99.90;;;;;;5074393;28;19913;-62
2022/06/23 07:52:52;;;;;;;;;;;20.70;99.90;;;;;;5071281;28;19942;-62
2022/06/23 07:55:28;;;;;;;;;;;20.90;99.90;;;;;;5067319;28;20042;-63
2022/06/23 07:57:54;;;;;;;;;;;21.10;99.90;;;;;;5063574;28;20318;-63
2022/06/23 08:00:20;;;;;;;;;;;21.20;99.90;;;;;;5066880;28;19917;-62
2022/06/23 08:02:52;;;;;;;;;;;21.10;99.90;;;;;;5071751;28;19999;-63
2022/06/23 08:05:27;;;;;;;;;;;21.10;99.90;;;;;;5071084;28;19915;-63
2022/06/23 08:07:54;;;;;;;;;;;21.10;99.90;;;;;;5070982;28;19970;-62
2022/06/23 08:10:26;;;;;;;;;;;21.10;99.90;;;;;;5071039;28;20384;-63
2022/06/23 08:13:17;;;;;;;;;;;21.10;99.90;;;;;;5070058;28;19919;-63
2022/06/23 08:18:29;;;;;;;;;;;21.10;99.90;;;;;;5078483;28;19978;-64
2022/06/23 08:21:01;;;;;;;;;;;21.20;99.90;;;;;;5086587;28;19912;-62
2022/06/23 08:23:28;;;;;;;;;;;21.20;99.90;;;;;;5079563;28;20259;-63
2022/06/23 08:25:53;;;;;;;;;;;21.40;99.90;;;;;;5062088;28;19913;-63
2022/06/23 08:28:20;;;;;;;;;;;21.50;99.90;;;;;;5085726;28;19912;-62
2022/06/23 08:30:46;;;;;;;;;;;21.70;99.90;;;;;;5080662;28;19923;-63
2022/06/23 08:33:12;;;;;;;;;;;21.70;99.90;;;;;;5091207;28;19908;-62
2022/06/23 08:35:41;;;;;;;;;;;21.70;99.90;;;;;;5089410;28;19912;-63
2022/06/23 08:38:27;;;;;;;;;;;21.90;99.60;;;;;;5089765;28;19935;-63
2022/06/23 08:40:59;;;;;;;;;;;21.90;99.30;;;;;;5049053;28;19962;-62
2022/06/23 08:43:33;;;;;;;;;;;22.20;98.10;;;;;;5084599;28;19912;-63
2022/06/23 08:46:10;;;;;;;;;;;22.50;97.30;;;;;;5071538;28;19919;-62
2022/06/23 08:48:39;;;;;;;;;;;22.70;96.60;;;;;;5073999;28;19912;-62
2022/06/23 08:51:25;;;;;;;;;;;23.00;95.40;;;;;;5085476;28;19912;-62
2022/06/23 08:53:53;;;;;;;;;;;23.10;95.10;;;;;;5087283;28;19918;-62
2022/06/23 08:56:21;;;;;;;;;;;23.30;94.30;;;;;;5060303;28;20445;-63
2022/06/23 08:58:52;;;;;;;;;;;23.20;93.30;;;;;;5085022;28;20039;-62
2022/06/23 09:01:20;;;;;;;;;;;23.10;93.40;;;;;;5091629;28;20329;-63
2022/06/23 09:04:00;;;;;;;;;;;23.00;94.50;;;;;;5082269;28;19962;-63
2022/06/23 09:06:25;;;;;;;;;;;23.00;94.00;;;;;;5090887;28;19912;-62
2022/06/23 09:09:03;;;;;;;;;;;23.20;93.40;;;;;;5091652;28;20011;-63
2022/06/23 09:11:35;;;;;;;;;;;22.90;93.30;;;;;;5089678;28;20007;-63
2022/06/23 09:14:16;;;;;;;;;;;22.80;94.30;;;;;;5070331;28;19924;-63
2022/06/23 09:16:41;;;;;;;;;;;22.80;94.60;;;;;;5078447;28;19913;-64
2022/06/23 09:19:07;;;;;;;;;;;22.80;94.20;;;;;;5066042;28;20465;-63
2022/06/23 09:21:38;;;;;;;;;;;22.80;93.50;;;;;;5087510;28;20404;-63
2022/06/23 09:24:04;;;;;;;;;;;22.90;93.70;;;;;;5084580;28;19918;-63
2022/06/23 09:26:33;;;;;;;;;;;22.90;93.60;;;;;;5092354;28;20003;-64
2022/06/23 09:29:07;;;;;;;;;;;23.00;93.30;;;;;;5070782;28;19922;-63
2022/06/23 09:31:43;;;;;;;;;;;22.90;93.70;;;;;;5093732;28;20367;-64
2022/06/23 09:34:12;;;;;;;;;;;23.10;93.40;;;;;;5093106;28;19912;-63
2022/06/23 09:36:38;;;;;;;;;;;23.30;92.90;;;;;;5094476;28;19912;-63
2022/06/23 09:39:11;;;;;;;;;;;23.20;92.20;;;;;;5089023;28;19924;-63
2022/06/23 09:41:46;;;;;;;;;;;23.30;92.50;;;;;;5083229;28;19917;-63
2022/06/23 09:44:24;;;;;;;;;;;23.30;92.70;;;;;;5091316;28;20373;-64
2022/06/23 09:46:57;;;;;;;;;;;23.30;92.30;;;;;;5069597;28;20033;-63
2022/06/23 09:49:29;;;;;;;;;;;23.50;92.30;;;;;;5092213;28;20312;-63
2022/06/23 09:52:04;;;;;;;;;;;23.70;92.20;;;;;;5086994;28;20437;-63
2022/06/23 09:54:30;;;;;;;;;;;23.60;91.30;;;;;;5094081;28;20259;-63
2022/06/23 09:57:05;;;;;;;;;;;23.70;90.70;;;;;;5089268;28;19912;-63
2022/06/23 09:59:33;;;;;;;;;;;24.10;90.40;;;;;;5091049;28;19939;-63
2022/06/23 10:02:02;;;;;;;;;;;24.20;89.80;;;;;;5092113;28;20284;-63
2022/06/23 10:04:33;;;;;;;;;;;24.40;86.00;;;;;;5087690;28;19924;-64
2022/06/23 10:07:04;;;;;;;;;;;24.20;83.60;;;;;;5070498;28;19912;-63
2022/06/23 10:10:02;;;;;;;;;;;24.30;82.00;;;;;;5090443;28;20063;-63
2022/06/23 10:12:31;;;;;;;;;;;24.20;80.80;;;;;;5039295;28;19920;-61
2022/06/23 10:15:32;;;;;;;;;;;24.30;81.60;;;;;;5090348;28;20260;-62
2022/06/23 10:17:59;;;;;;;;;;;24.70;79.70;;;;;;5018994;28;19951;-61
2022/06/23 10:20:25;;;;;;;;;;;25.00;78.70;;;;;;5080061;28;20338;-62
2022/06/23 10:23:00;;;;;;;;;;;25.00;79.30;;;;;;5094700;28;19979;-61
2022/06/23 10:25:40;;;;;;;;;;;24.90;80.00;;;;;;5094683;28;19913;-61
2022/06/23 10:28:24;;;;;;;;;;;25.00;80.20;;;;;;5096201;28;19919;-62
2022/06/23 10:30:53;;;;;;;;;;;25.00;80.00;;;;;;5084443;28;19916;-61
2022/06/23 10:33:31;;;;;;;;;;;25.00;79.30;;;;;;5093457;28;20372;-62
2022/06/23 10:36:29;;;;;;;;;;;24.80;78.60;;;;;;5093819;28;19923;-61
2022/06/23 10:39:00;;;;;;;;;;;24.90;75.40;;;;;;5051378;28;19920;-62
2022/06/23 10:41:40;;;;;;;;;;;24.80;73.70;;;;;;5084897;28;19912;-62
2022/06/23 10:44:12;;;;;;;;;;;24.40;71.30;;;;;;5073972;28;20254;-63
2022/06/23 10:46:50;;;;;;;;;;;24.20;71.20;;;;;;5071794;28;19912;-62
2022/06/23 10:49:34;;;;;;;;;;;24.30;70.80;;;;;;5091927;28;19940;-62
2022/06/23 10:52:11;;;;;;;;;;;24.40;72.80;;;;;;5091831;28;20416;-65
2022/06/23 10:54:46;;;;;;;;;;;24.40;72.30;;;;;;5076703;28;19912;-63
2022/06/23 10:57:27;;;;;;;;;;;24.40;73.20;;;;;;5088080;28;19916;-61
2022/06/23 11:00:22;;;;;;;;;;;24.70;73.00;;;;;;5091559;28;19974;-62
2022/06/23 11:03:05;;;;;;;;;;;25.00;72.70;;;;;;5018838;28;19957;-63
2022/06/23 11:05:31;;;;;;;;;;;25.20;72.40;;;;;;5081322;28;19947;-62
2022/06/23 11:08:11;;;;;;;;;;;25.10;72.20;;;;;;5085390;28;20008;-62
2022/06/23 11:10:49;;;;;;;;;;;25.10;72.70;;;;;;5067862;28;19921;-62
2022/06/23 11:13:23;;;;;;;;;;;25.40;70.90;;;;;;5085225;28;19913;-62
2022/06/23 11:15:49;;;;;;;;;;;25.70;69.60;;;;;;5094229;28;20018;-63
2022/06/23 11:18:26;;;;;;;;;;;25.60;67.50;;;;;;5094233;28;20001;-62
2022/06/23 11:21:10;;;;;;;;;;;25.70;67.30;;;;;;5083071;28;19963;-62
2022/06/23 11:23:49;;;;;;;;;;;25.80;67.00;;;;;;5090638;28;20007;-62
2022/06/23 11:26:35;;;;;;;;;;;25.90;67.10;;;;;;5086347;28;20046;-62
2022/06/23 11:29:16;;;;;;;;;;;26.10;68.10;;;;;;5088440;28;21026;-62
2022/06/23 11:31:57;;;;;;;;;;;26.40;67.00;;;;;;5086992;28;19927;-62
2022/06/23 11:34:41;;;;;;;;;;;26.30;66.70;;;;;;5079002;28;20328;-61
2022/06/23 11:37:25;;;;;;;;;;;26.00;67.50;;;;;;5071171;28;19938;-61
2022/06/23 11:39:51;;;;;;;;;;;26.20;67.10;;;;;;5081394;28;20277;-61
2022/06/23 11:42:26;;;;;;;;;;;26.20;67.00;;;;;;5085937;28;19930;-61
2022/06/23 11:45:00;;;;;;;;;;;26.30;67.10;;;;;;5087567;28;19920;-61
2022/06/23 11:47:35;;;;;;;;;;;26.40;67.50;;;;;;5083237;28;19922;-61
2022/06/23 11:50:00;;;;;;;;;;;26.50;67.90;;;;;;5085697;28;19965;-61
2022/06/23 11:52:35;;;;;;;;;;;26.60;66.50;;;;;;5088957;28;19916;-62
2022/06/23 11:55:10;;;;;;;;;;;26.60;67.40;;;;;;5086996;28;19920;-62
2022/06/23 11:57:48;;;;;;;;;;;26.60;68.60;;;;;;5088553;28;19935;-61
2022/06/23 12:00:15;;;;;;;;;;;26.60;68.90;;;;;;5086205;28;19908;-61
2022/06/23 12:02:59;;;;;;;;;;;26.20;69.90;;;;;;5073638;28;19920;-61
2022/06/23 12:05:27;;;;;;;;;;;26.00;71.00;;;;;;5089327;28;20419;-61
2022/06/23 12:08:05;;;;;;;;;;;25.80;72.00;;;;;;5095144;28;19908;-62
2022/06/23 12:10:32;;;;;;;;;;;25.80;73.40;;;;;;5091435;28;19920;-62
2022/06/23 12:12:59;;;;;;;;;;;25.80;74.40;;;;;;5076034;28;20250;-61
2022/06/23 12:15:27;;;;;;;;;;;25.80;74.60;;;;;;5088397;28;19908;-62
2022/06/23 12:17:55;;;;;;;;;;;25.70;75.30;;;;;;5084363;28;19924;-62
2022/06/23 12:20:21;;;;;;;;;;;25.70;76.30;;;;;;5078770;28;20006;-62
2022/06/23 12:22:49;;;;;;;;;;;25.50;77.40;;;;;;5068922;28;20049;-61
2022/06/23 12:25:19;;;;;;;;;;;25.10;78.40;;;;;;5082120;28;20003;-62
2022/06/23 12:27:56;;;;;;;;;;;25.00;79.90;;;;;;5085918;28;20061;-61
2022/06/23 12:30:23;;;;;;;;;;;24.70;81.10;;;;;;5089378;28;19922;-62
2022/06/23 12:32:56;;;;;;;;;;;24.50;81.70;;;;;;5064740;28;20274;-61
2022/06/23 12:35:26;;;;;;;;;;;24.30;82.30;;;;;;5086894;28;20017;-62
2022/06/23 12:37:52;;;;;;;;;;;24.20;88.10;;;;;;5091086;28;20280;-63
2022/06/23 12:40:23;;;;;;;;;;;24.10;90.40;;;;;;5090058;28;19912;-62
2022/06/23 12:42:55;;;;;;;;;;;23.80;91.40;;;;;;5090345;28;19916;-63
2022/06/23 12:45:35;;;;;;;;;;;23.80;92.50;;;;;;5086172;28;19920;-63
2022/06/23 12:48:13;;;;;;;;;;;23.90;94.30;;;;;;5087840;28;20019;-62
2022/06/23 12:50:58;;;;;;;;;;;24.20;93.10;;;;;;5080349;28;20061;-62
2022/06/23 12:53:41;;;;;;;;;;;24.20;92.80;;;;;;5084519;28;19942;-62
2022/06/23 12:56:10;;;;;;;;;;;24.40;91.70;;;;;;5087416;28;20305;-62
2022/06/23 12:58:44;;;;;;;;;;;24.40;91.10;;;;;;5071038;28;19931;-62
2022/06/23 13:01:30;;;;;;;;;;;24.70;86.50;;;;;;5091535;28;20006;-64
2022/06/23 13:03:59;;;;;;;;;;;24.70;86.60;;;;;;5040809;28;19919;-62
2022/06/23 13:06:25;;;;;;;;;;;24.50;86.50;;;;;;5081419;28;19912;-63
2022/06/23 13:08:53;;;;;;;;;;;24.70;86.50;;;;;;5090209;28;20192;-62
2022/06/23 13:11:24;;;;;;;;;;;24.70;87.50;;;;;;5085809;28;19912;-62
2022/06/23 13:13:55;;;;;;;;;;;24.60;85.60;;;;;;5091357;28;19984;-62
2022/06/23 13:16:23;;;;;;;;;;;24.50;87.00;;;;;;5091290;28;19970;-63
2022/06/23 13:19:08;;;;;;;;;;;24.20;87.80;;;;;;5086884;28;19920;-62
2022/06/23 13:21:35;;;;;;;;;;;24.10;88.00;;;;;;5078475;28;20341;-62
2022/06/23 13:24:01;;;;;;;;;;;24.20;89.20;;;;;;5088473;28;19919;-62
2022/06/23 13:26:50;;;;;;;;;;;24.20;91.10;;;;;;5084980;28;20365;-62
2022/06/23 13:29:23;;;;;;;;;;;24.10;91.10;;;;;;5057640;28;19944;-62
2022/06/23 13:31:57;;;;;;;;;;;23.80;91.70;;;;;;5087548;28;19920;-62
2022/06/23 13:34:28;;;;;;;;;;;23.80;92.40;;;;;;5082799;28;19967;-62
2022/06/23 13:36:59;;;;;;;;;;;24.00;92.20;;;;;;5085782;28;20023;-62
2022/06/23 13:39:31;;;;;;;;;;;23.80;92.30;;;;;;5080705;28;19959;-62
2022/06/23 13:41:59;;;;;;;;;;;23.80;93.60;;;;;;5088314;28;19912;-61
2022/06/23 13:44:28;;;;;;;;;;;23.90;93.40;;;;;;5089721;28;20411;-61
2022/06/23 13:47:14;;;;;;;;;;;23.80;93.50;;;;;;5088417;28;19919;-61
2022/06/23 13:49:42;;;;;;;;;;;23.80;94.90;;;;;;5089761;28;20475;-62
2022/06/23 13:52:11;;;;;;;;;;;24.10;95.00;;;;;;5090988;28;19912;-63
2022/06/23 13:54:39;;;;;;;;;;;24.30;94.40;;;;;;5089736;28;19912;-62
2022/06/23 13:57:09;;;;;;;;;;;24.50;94.90;;;;;;5091767;28;19958;-62
2022/06/23 13:59:54;;;;;;;;;;;24.90;93.50;;;;;;5093269;28;20456;-63
2022/06/23 14:02:38;;;;;;;;;;;24.70;92.30;;;;;;5075777;28;19919;-62
2022/06/23 14:05:14;;;;;;;;;;;24.80;92.40;;;;;;5091885;28;19955;-62
2022/06/23 14:08:02;;;;;;;;;;;24.90;90.70;;;;;;5077220;28;20366;-61
2022/06/23 14:10:39;;;;;;;;;;;25.20;91.60;;;;;;5078994;28;20022;-62
2022/06/23 14:13:09;;;;;;;;;;;25.70;90.70;;;;;;5088049;28;20029;-62
2022/06/23 14:15:34;;;;;;;;;;;25.80;89.50;;;;;;5090774;28;19935;-61
2022/06/23 14:18:00;;;;;;;;;;;25.80;89.90;;;;;;5091506;28;20366;-63
2022/06/23 14:20:33;;;;;;;;;;;25.80;89.80;;;;;;5090529;28;19927;-62
2022/06/23 14:23:03;;;;;;;;;;;25.60;87.90;;;;;;5088281;28;19908;-62
2022/06/23 14:25:38;;;;;;;;;;;25.20;88.10;;;;;;5081774;28;19995;-62
2022/06/23 14:28:16;;;;;;;;;;;25.40;89.30;;;;;;5087448;28;19912;-61
2022/06/23 14:30:44;;;;;;;;;;;25.70;89.00;;;;;;5087249;28;19959;-63
2022/06/23 14:33:36;;;;;;;;;;;26.10;87.90;;;;;;5086697;28;19938;-63
2022/06/23 14:36:02;;;;;;;;;;;26.50;84.10;;;;;;5045758;28;20340;-62
2022/06/23 14:38:46;;;;;;;;;;;26.90;82.10;;;;;;5090769;28;19999;-61
2022/06/23 14:41:19;;;;;;;;;;;27.10;83.50;;;;;;5085554;28;19912;-62
2022/06/23 14:43:53;;;;;;;;;;;27.50;82.70;;;;;;5093903;28;19912;-62
2022/06/23 14:46:31;;;;;;;;;;;28.40;81.70;;;;;;5089558;28;20312;-62
2022/06/23 14:48:56;;;;;;;;;;;29.10;79.50;;;;;;5084734;28;20400;-62
2022/06/23 14:51:42;;;;;;;;;;;29.20;78.80;;;;;;5079852;28;19912;-62
2022/06/23 14:54:10;;;;;;;;;;;28.40;80.00;;;;;;5091157;28;20289;-62
2022/06/23 14:56:55;;;;;;;;;;;27.70;82.90;;;;;;5090885;28;19916;-62
2022/06/23 14:59:21;;;;;;;;;;;27.10;85.50;;;;;;5082248;28;19924;-61
2022/06/23 15:01:47;;;;;;;;;;;27.10;86.80;;;;;;5089529;28;19912;-61